sensor_id;sensor_type;location;lat;lon;timestamp;pressure;altitude;pressure_sealevel;temperature;humidity
69060;BME280;56135;37.534;-122.308;2023-02-23T00:01:14;100835.91;;;7.28;100.00
69060;BME280;56135;37.534;-122.308;2023-02-23T00:03:43;100834.16;;;7.33;100.00
69060;BME280;56135;37.534;-122.308;2023-02-23T00:06:11;100837.66;;;7.42;100.00
69060;BME280;56135;37.534;-122.308;2023-02-23T00:08:38;100825.41;;;7.39;100.00
69060;BME280;56135;37.534;-122.308;2023-02-23T00:11:07;100837.66;;;7.42;100.00
69060;BME280;56135;37.534;-122.308;2023-02-23T00:13:35;100834.16;;;7.40;100.00
69060;BME280;56135;37.534;-122.308;2023-02-23T00:18:31;100835.03;;;7.37;100.00
69060;BME280;56135;37.534;-122.308;2023-02-23T00:21:14;100842.88;;;7.25;100.00
69060;BME280;56135;37.534;-122.308;2023-02-23T00:24:02;100832.34;;;7.17;98.18
69060;BME280;56135;37.534;-122.308;2023-02-23T00:26:31;100844.56;;;7.03;94.27
69060;BME280;56135;37.534;-122.308;2023-02-23T00:29:12;100834.97;;;7.03;95.61
69060;BME280;56135;37.534;-122.308;2023-02-23T00:31:42;100835.78;;;6.94;97.83
69060;BME280;56135;37.534;-122.308;2023-02-23T00:34:10;100835.75;;;6.88;93.80
69060;BME280;56135;37.534;-122.308;2023-02-23T00:36:37;100840.09;;;6.83;94.52
69060;BME280;56135;37.534;-122.308;2023-02-23T00:39:06;100830.47;;;6.79;96.01
69060;BME280;56135;37.534;-122.308;2023-02-23T00:41:55;100840.09;;;6.75;96.25
69060;BME280;56135;37.534;-122.308;2023-02-23T00:44:22;100834.00;;;6.78;97.81
69060;BME280;56135;37.534;-122.308;2023-02-23T00:46:49;100833.09;;;6.79;98.00
69060;BME280;56135;37.534;-122.308;2023-02-23T00:49:17;100823.53;;;6.89;99.83
69060;BME280;56135;37.534;-122.308;2023-02-23T00:51:44;100836.69;;;6.96;100.00
69060;BME280;56135;37.534;-122.308;2023-02-23T00:54:14;100840.22;;;7.05;100.00
69060;BME280;56135;37.534;-122.308;2023-02-23T00:56:40;100841.03;;;6.96;100.00
69060;BME280;56135;37.534;-122.308;2023-02-23T00:59:09;100836.63;;;6.84;100.00
69060;BME280;56135;37.534;-122.308;2023-02-23T01:01:36;100840.06;;;6.66;100.00
69060;BME280;56135;37.534;-122.308;2023-02-23T01:04:03;100842.59;;;6.46;100.00
69060;BME280;56135;37.534;-122.308;2023-02-23T01:06:30;100849.47;;;6.30;100.00
69060;BME280;56135;37.534;-122.308;2023-02-23T01:08:57;100849.44;;;6.25;100.00
69060;BME280;56135;37.534;-122.308;2023-02-23T01:11:26;100845.84;;;6.09;100.00
69060;BME280;56135;37.534;-122.308;2023-02-23T01:14:02;100844.72;;;5.82;100.00
69060;BME280;56135;37.534;-122.308;2023-02-23T01:16:31;100842.03;;;5.72;100.00
69060;BME280;56135;37.534;-122.308;2023-02-23T01:19:00;100830.56;;;5.63;100.00
69060;BME280;56135;37.534;-122.308;2023-02-23T01:21:31;100834.88;;;5.58;100.00
69060;BME280;56135;37.534;-122.308;2023-02-23T01:23:58;100835.66;;;5.46;100.00
69060;BME280;56135;37.534;-122.308;2023-02-23T01:26:27;100825.13;;;5.39;100.00
69060;BME280;56135;37.534;-122.308;2023-02-23T01:28:59;100831.16;;;5.31;100.00
69060;BME280;56135;37.534;-122.308;2023-02-23T01:31:27;100825.81;;;5.24;100.00
69060;BME280;56135;37.534;-122.308;2023-02-23T01:33:55;100830.13;;;5.17;100.00
69060;BME280;56135;37.534;-122.308;2023-02-23T01:36:24;100827.47;;;5.14;100.00
69060;BME280;56135;37.534;-122.308;2023-02-23T01:38:51;100818.69;;;5.07;100.00
69060;BME280;56135;37.534;-122.308;2023-02-23T01:41:26;100821.22;;;5.01;100.00
69060;BME280;56135;37.534;-122.308;2023-02-23T01:46:26;100817.63;;;4.93;100.00
69060;BME280;56135;37.534;-122.308;2023-02-23T01:48:54;100814.09;;;4.88;100.00
69060;BME280;56135;37.534;-122.308;2023-02-23T01:51:25;100811.44;;;4.83;100.00
69060;BME280;56135;37.534;-122.308;2023-02-23T01:54:06;100818.38;;;4.81;100.00
69060;BME280;56135;37.534;-122.308;2023-02-23T01:56:41;100806.94;;;4.74;100.00
69060;BME280;56135;37.534;-122.308;2023-02-23T01:59:10;100821.69;;;4.64;100.00
69060;BME280;56135;37.534;-122.308;2023-02-23T02:01:38;100818.16;;;4.65;100.00
69060;BME280;56135;37.534;-122.308;2023-02-23T02:04:05;100830.34;;;4.60;100.00
69060;BME280;56135;37.534;-122.308;2023-02-23T02:06:34;100838.19;;;4.60;100.00
69060;BME280;56135;37.534;-122.308;2023-02-23T02:09:07;100831.19;;;4.59;100.00
69060;BME280;56135;37.534;-122.308;2023-02-23T02:11:37;100827.66;;;4.56;100.00
69060;BME280;56135;37.534;-122.308;2023-02-23T02:14:16;100829.31;;;4.50;100.00
69060;BME280;56135;37.534;-122.308;2023-02-23T02:17:21;100833.75;;;4.55;100.00
69060;BME280;56135;37.534;-122.308;2023-02-23T02:26:37;100837.03;;;4.40;100.00
69060;BME280;56135;37.534;-122.308;2023-02-23T02:40:27;100836.81;;;4.24;100.00
69060;BME280;56135;37.534;-122.308;2023-02-23T02:43:13;100839.34;;;4.16;100.00
69060;BME280;56135;37.534;-122.308;2023-02-23T02:46:16;100847.91;;;4.09;100.00
69060;BME280;56135;37.534;-122.308;2023-02-23T02:56:52;100844.47;;;4.10;100.00
69060;BME280;56135;37.534;-122.308;2023-02-23T02:59:23;100847.06;;;4.09;100.00
69060;BME280;56135;37.534;-122.308;2023-02-23T03:02:20;100853.16;;;4.11;100.00
69060;BME280;56135;37.534;-122.308;2023-02-23T03:05:15;100846.16;;;4.08;100.00
69060;BME280;56135;37.534;-122.308;2023-02-23T03:11:12;100839.06;;;3.98;100.00
69060;BME280;56135;37.534;-122.308;2023-02-23T03:17:39;100851.09;;;3.90;100.00
69060;BME280;56135;37.534;-122.308;2023-02-23T03:23:05;100859.84;;;3.90;100.00
69060;BME280;56135;37.534;-122.308;2023-02-23T03:35:07;100871.03;;;3.83;100.00
69060;BME280;56135;37.534;-122.308;2023-02-23T03:38:02;100868.28;;;3.75;100.00
69060;BME280;56135;37.534;-122.308;2023-02-23T03:40:50;100870.81;;;3.71;100.00
69060;BME280;56135;37.534;-122.308;2023-02-23T03:43:58;100872.44;;;3.64;100.00
69060;BME280;56135;37.534;-122.308;2023-02-23T03:46:46;100874.13;;;3.62;100.00
69060;BME280;56135;37.534;-122.308;2023-02-23T03:49:34;100888.91;;;3.58;100.00
69060;BME280;56135;37.534;-122.308;2023-02-23T03:52:24;100886.16;;;3.52;100.00
69060;BME280;56135;37.534;-122.308;2023-02-23T03:55:16;100883.56;;;3.52;100.00
69060;BME280;56135;37.534;-122.308;2023-02-23T03:58:05;100884.47;;;3.54;100.00
69060;BME280;56135;37.534;-122.308;2023-02-23T04:00:54;100889.72;;;3.56;100.00
69060;BME280;56135;37.534;-122.308;2023-02-23T04:03:44;100893.09;;;3.50;100.00
69060;BME280;56135;37.534;-122.308;2023-02-23T04:06:34;100900.84;;;3.45;100.00
69060;BME280;56135;37.534;-122.308;2023-02-23T04:09:20;100899.91;;;3.42;100.00
69060;BME280;56135;37.534;-122.308;2023-02-23T04:17:32;100909.75;;;3.57;100.00
69060;BME280;56135;37.534;-122.308;2023-02-23T04:19:59;100910.78;;;3.65;100.00
69060;BME280;56135;37.534;-122.308;2023-02-23T04:22:25;100917.00;;;3.70;100.00
69060;BME280;56135;37.534;-122.308;2023-02-23T04:24:52;100921.44;;;3.76;100.00
69060;BME280;56135;37.534;-122.308;2023-02-23T04:27:19;100919.88;;;3.87;100.00
69060;BME280;56135;37.534;-122.308;2023-02-23T04:29:45;100928.78;;;3.98;100.00
69060;BME280;56135;37.534;-122.308;2023-02-23T04:32:17;100939.38;;;4.06;100.00
69060;BME280;56135;37.534;-122.308;2023-02-23T04:34:44;100954.31;;;4.13;100.00
69060;BME280;56135;37.534;-122.308;2023-02-23T04:37:10;100948.28;;;4.19;100.00
69060;BME280;56135;37.534;-122.308;2023-02-23T04:39:37;100955.38;;;4.23;100.00
69060;BME280;56135;37.534;-122.308;2023-02-23T04:42:04;100957.94;;;4.22;100.00
69060;BME280;56135;37.534;-122.308;2023-02-23T04:44:29;100953.59;;;4.22;100.00
69060;BME280;56135;37.534;-122.308;2023-02-23T04:46:56;100960.53;;;4.20;100.00
69060;BME280;56135;37.534;-122.308;2023-02-23T04:49:24;100950.88;;;4.17;100.00
69060;BME280;56135;37.534;-122.308;2023-02-23T04:51:50;100943.78;;;4.09;100.00
69060;BME280;56135;37.534;-122.308;2023-02-23T04:54:16;100955.91;;;4.05;100.00
69060;BME280;56135;37.534;-122.308;2023-02-23T04:56:43;100953.16;;;3.97;100.00
69060;BME280;56135;37.534;-122.308;2023-02-23T04:59:09;100945.91;;;3.81;100.00
69060;BME280;56135;37.534;-122.308;2023-02-23T05:01:35;100958.88;;;3.75;100.00
69060;BME280;56135;37.534;-122.308;2023-02-23T05:04:02;100957.00;;;3.67;100.00
69060;BME280;56135;37.534;-122.308;2023-02-23T05:06:29;100942.88;;;3.59;100.00
69060;BME280;56135;37.534;-122.308;2023-02-23T05:08:55;100954.84;;;3.45;100.00
69060;BME280;56135;37.534;-122.308;2023-02-23T05:11:21;100958.13;;;3.36;100.00
69060;BME280;56135;37.534;-122.308;2023-02-23T05:13:48;100964.91;;;3.26;100.00
69060;BME280;56135;37.534;-122.308;2023-02-23T05:16:14;100956.97;;;3.22;100.00
69060;BME280;56135;37.534;-122.308;2023-02-23T05:18:40;100955.09;;;3.14;100.00
69060;BME280;56135;37.534;-122.308;2023-02-23T05:21:07;100954.19;;;3.14;100.00
69060;BME280;56135;37.534;-122.308;2023-02-23T05:23:35;100965.53;;;3.14;100.00
69060;BME280;56135;37.534;-122.308;2023-02-23T05:26:05;100957.69;;;3.14;100.00
69060;BME280;56135;37.534;-122.308;2023-02-23T05:28:33;100961.34;;;3.23;100.00
69060;BME280;56135;37.534;-122.308;2023-02-23T05:31:00;100949.19;;;3.25;100.00
69060;BME280;56135;37.534;-122.308;2023-02-23T05:33:31;100950.06;;;3.25;100.00
69060;BME280;56135;37.534;-122.308;2023-02-23T05:35:58;100952.59;;;3.22;100.00
69060;BME280;56135;37.534;-122.308;2023-02-23T05:38:27;100953.38;;;3.16;100.00
69060;BME280;56135;37.534;-122.308;2023-02-23T05:40:53;100967.13;;;3.08;100.00
69060;BME280;56135;37.534;-122.308;2023-02-23T05:43:19;100966.16;;;3.04;100.00
69060;BME280;56135;37.534;-122.308;2023-02-23T05:45:46;100977.44;;;3.02;100.00
69060;BME280;56135;37.534;-122.308;2023-02-23T05:48:12;100977.28;;;2.95;100.00
69060;BME280;56135;37.534;-122.308;2023-02-23T05:50:38;100974.63;;;2.92;100.00
69060;BME280;56135;37.534;-122.308;2023-02-23T05:53:05;100977.16;;;2.89;100.00
69060;BME280;56135;37.534;-122.308;2023-02-23T05:55:31;100976.22;;;2.86;100.00
69060;BME280;56135;37.534;-122.308;2023-02-23T05:58:00;100978.69;;;2.81;100.00
69060;BME280;56135;37.534;-122.308;2023-02-23T06:00:29;100973.41;;;2.78;100.00
69060;BME280;56135;37.534;-122.308;2023-02-23T06:02:55;100978.47;;;2.72;100.00
69060;BME280;56135;37.534;-122.308;2023-02-23T06:05:21;100987.94;;;2.66;100.00
69060;BME280;56135;37.534;-122.308;2023-02-23T06:07:47;100982.66;;;2.63;100.00
69060;BME280;56135;37.534;-122.308;2023-02-23T06:10:13;100985.06;;;2.56;100.00
69060;BME280;56135;37.534;-122.308;2023-02-23T06:12:40;100990.97;;;2.47;100.00
69060;BME280;56135;37.534;-122.308;2023-02-23T06:15:18;100984.72;;;2.40;100.00
69060;BME280;56135;37.534;-122.308;2023-02-23T06:17:44;100983.72;;;2.35;100.00
69060;BME280;56135;37.534;-122.308;2023-02-23T06:20:11;100989.59;;;2.26;100.00
69060;BME280;56135;37.534;-122.308;2023-02-23T06:22:37;100992.09;;;2.22;100.00
69060;BME280;56135;37.534;-122.308;2023-02-23T06:25:04;100986.72;;;2.15;100.00
69060;BME280;56135;37.534;-122.308;2023-02-23T06:27:33;100991.72;;;2.08;100.00
69060;BME280;56135;37.534;-122.308;2023-02-23T06:30:00;100989.91;;;2.05;100.00
69060;BME280;56135;37.534;-122.308;2023-02-23T06:32:26;100995.06;;;2.02;100.00
69060;BME280;56135;37.534;-122.308;2023-02-23T06:34:52;100994.00;;;1.95;100.00
69060;BME280;56135;37.534;-122.308;2023-02-23T06:37:19;100993.97;;;1.94;100.00
69060;BME280;56135;37.534;-122.308;2023-02-23T06:39:45;100996.44;;;1.89;100.00
69060;BME280;56135;37.534;-122.308;2023-02-23T06:42:11;100997.13;;;1.82;100.00
69060;BME280;56135;37.534;-122.308;2023-02-23T06:44:38;100994.44;;;1.79;100.00
69060;BME280;56135;37.534;-122.308;2023-02-23T06:47:04;101006.44;;;1.74;100.00
69060;BME280;56135;37.534;-122.308;2023-02-23T06:49:31;100996.78;;;1.70;100.00
69060;BME280;56135;37.534;-122.308;2023-02-23T06:51:57;101000.16;;;1.65;100.00
69060;BME280;56135;37.534;-122.308;2023-02-23T06:54:23;101007.06;;;1.63;100.00
69060;BME280;56135;37.534;-122.308;2023-02-23T06:56:51;101000.03;;;1.61;100.00
69060;BME280;56135;37.534;-122.308;2023-02-23T06:59:18;101005.09;;;1.56;100.00
69060;BME280;56135;37.534;-122.308;2023-02-23T07:01:44;101005.81;;;1.50;100.00
69060;BME280;56135;37.534;-122.308;2023-02-23T07:04:10;101004.88;;;1.48;100.00
69060;BME280;56135;37.534;-122.308;2023-02-23T07:06:37;101004.75;;;1.44;100.00
69060;BME280;56135;37.534;-122.308;2023-02-23T07:09:03;101003.81;;;1.42;100.00
69060;BME280;56135;37.534;-122.308;2023-02-23T07:11:30;101005.50;;;1.40;100.00
69060;BME280;56135;37.534;-122.308;2023-02-23T07:13:57;101010.72;;;1.40;100.00
69060;BME280;56135;37.534;-122.308;2023-02-23T07:16:24;101008.13;;;1.40;100.00
69060;BME280;56135;37.534;-122.308;2023-02-23T07:18:53;101002.09;;;1.41;100.00
69060;BME280;56135;37.534;-122.308;2023-02-23T07:21:19;100998.69;;;1.43;100.00
69060;BME280;56135;37.534;-122.308;2023-02-23T07:23:46;101002.16;;;1.44;100.00
69060;BME280;56135;37.534;-122.308;2023-02-23T07:26:15;101001.31;;;1.45;100.00
69060;BME280;56135;37.534;-122.308;2023-02-23T07:28:43;101002.28;;;1.48;100.00
69060;BME280;56135;37.534;-122.308;2023-02-23T07:31:09;101000.88;;;1.60;100.00
69060;BME280;56135;37.534;-122.308;2023-02-23T07:33:36;101003.72;;;1.69;100.00
69060;BME280;56135;37.534;-122.308;2023-02-23T07:36:02;100997.97;;;1.81;100.00
69060;BME280;56135;37.534;-122.308;2023-02-23T07:38:28;100999.84;;;1.87;100.00
69060;BME280;56135;37.534;-122.308;2023-02-23T07:40:55;101005.22;;;1.93;100.00
69060;BME280;56135;37.534;-122.308;2023-02-23T07:43:21;101005.31;;;1.96;100.00
69060;BME280;56135;37.534;-122.308;2023-02-23T07:45:49;101004.50;;;1.98;100.00
69060;BME280;56135;37.534;-122.308;2023-02-23T07:48:19;101009.09;;;2.07;100.00
69060;BME280;56135;37.534;-122.308;2023-02-23T07:50:46;101007.50;;;2.12;100.00
69060;BME280;56135;37.534;-122.308;2023-02-23T07:53:13;100998.94;;;2.18;100.00
69060;BME280;56135;37.534;-122.308;2023-02-23T07:55:39;101004.25;;;2.23;100.00
69060;BME280;56135;37.534;-122.308;2023-02-23T07:58:06;101011.41;;;2.30;100.00
69060;BME280;56135;37.534;-122.308;2023-02-23T08:00:34;101009.00;;;2.38;100.00
69060;BME280;56135;37.534;-122.308;2023-02-23T08:03:01;101011.66;;;2.41;100.00
69060;BME280;56135;37.534;-122.308;2023-02-23T08:05:28;100993.47;;;2.44;100.00
69060;BME280;56135;37.534;-122.308;2023-02-23T08:07:54;101000.41;;;2.42;100.00
69060;BME280;56135;37.534;-122.308;2023-02-23T08:10:21;101014.22;;;2.38;100.00
69060;BME280;56135;37.534;-122.308;2023-02-23T08:12:47;100996.78;;;2.37;100.00
69060;BME280;56135;37.534;-122.308;2023-02-23T08:15:13;101005.34;;;2.31;100.00
69060;BME280;56135;37.534;-122.308;2023-02-23T08:17:40;101008.72;;;2.27;100.00
69060;BME280;56135;37.534;-122.308;2023-02-23T08:20:08;101011.22;;;2.22;100.00
69060;BME280;56135;37.534;-122.308;2023-02-23T08:22:34;101013.63;;;2.16;100.00
69060;BME280;56135;37.534;-122.308;2023-02-23T08:25:01;101016.19;;;2.13;100.00
69060;BME280;56135;37.534;-122.308;2023-02-23T08:27:33;101016.88;;;2.06;100.00
69060;BME280;56135;37.534;-122.308;2023-02-23T08:29:59;101014.09;;;1.99;100.00
69060;BME280;56135;37.534;-122.308;2023-02-23T08:32:32;101015.75;;;1.97;100.00
69060;BME280;56135;37.534;-122.308;2023-02-23T08:35:00;101013.88;;;1.92;100.00
69060;BME280;56135;37.534;-122.308;2023-02-23T08:37:28;101018.22;;;1.91;100.00
69060;BME280;56135;37.534;-122.308;2023-02-23T08:39:54;101021.50;;;1.84;100.00
69060;BME280;56135;37.534;-122.308;2023-02-23T08:42:20;101015.28;;;1.79;100.00
69060;BME280;56135;37.534;-122.308;2023-02-23T08:44:46;101014.19;;;1.71;100.00
69060;BME280;56135;37.534;-122.308;2023-02-23T08:47:16;101006.19;;;1.64;100.00
69060;BME280;56135;37.534;-122.308;2023-02-23T08:49:47;101015.56;;;1.58;100.00
69060;BME280;56135;37.534;-122.308;2023-02-23T08:52:13;101011.25;;;1.58;100.00
69060;BME280;56135;37.534;-122.308;2023-02-23T08:54:39;101014.56;;;1.53;100.00
69060;BME280;56135;37.534;-122.308;2023-02-23T08:57:05;101018.75;;;1.47;100.00
69060;BME280;56135;37.534;-122.308;2023-02-23T08:59:31;101019.59;;;1.46;100.00
69060;BME280;56135;37.534;-122.308;2023-02-23T09:01:58;101026.34;;;1.40;100.00
69060;BME280;56135;37.534;-122.308;2023-02-23T09:04:24;101028.75;;;1.33;100.00
69060;BME280;56135;37.534;-122.308;2023-02-23T09:06:51;101023.38;;;1.27;100.00
69060;BME280;56135;37.534;-122.308;2023-02-23T09:09:17;101030.09;;;1.21;100.00
69060;BME280;56135;37.534;-122.308;2023-02-23T09:11:43;101032.66;;;1.19;100.00
69060;BME280;56135;37.534;-122.308;2023-02-23T09:14:09;101032.50;;;1.13;100.00
69060;BME280;56135;37.534;-122.308;2023-02-23T09:16:36;101023.75;;;1.11;100.00
69060;BME280;56135;37.534;-122.308;2023-02-23T09:19:02;101033.13;;;1.06;100.00
69060;BME280;56135;37.534;-122.308;2023-02-23T09:21:29;101033.03;;;1.03;100.00
69060;BME280;56135;37.534;-122.308;2023-02-23T09:23:58;101032.00;;;0.97;100.00
69060;BME280;56135;37.534;-122.308;2023-02-23T09:26:25;101037.19;;;0.96;100.00
69060;BME280;56135;37.534;-122.308;2023-02-23T09:28:55;101035.44;;;0.96;100.00
69060;BME280;56135;37.534;-122.308;2023-02-23T09:31:23;101038.75;;;0.91;100.00
69060;BME280;56135;37.534;-122.308;2023-02-23T09:33:49;101030.91;;;0.89;100.00
69060;BME280;56135;37.534;-122.308;2023-02-23T09:36:19;101037.75;;;0.87;100.00
69060;BME280;56135;37.534;-122.308;2023-02-23T09:38:49;101039.31;;;0.82;100.00
69060;BME280;56135;37.534;-122.308;2023-02-23T09:43:58;101047.03;;;0.79;100.00
69060;BME280;56135;37.534;-122.308;2023-02-23T09:49:17;101040.72;;;0.71;100.00
69060;BME280;56135;37.534;-122.308;2023-02-23T09:51:49;101041.47;;;0.66;100.00
69060;BME280;56135;37.534;-122.308;2023-02-23T09:54:21;101032.59;;;0.60;100.00
69060;BME280;56135;37.534;-122.308;2023-02-23T09:56:49;101034.22;;;0.58;100.00
69060;BME280;56135;37.534;-122.308;2023-02-23T09:59:19;101031.59;;;0.56;100.00
69060;BME280;56135;37.534;-122.308;2023-02-23T10:04:23;101045.31;;;0.52;100.00
69060;BME280;56135;37.534;-122.308;2023-02-23T10:07:29;101033.84;;;0.45;100.00
69060;BME280;56135;37.534;-122.308;2023-02-23T10:13:01;101037.19;;;0.41;100.00
69060;BME280;56135;37.534;-122.308;2023-02-23T10:18:19;101029.22;;;0.37;100.00
69060;BME280;56135;37.534;-122.308;2023-02-23T10:20:57;101032.59;;;0.34;100.00
69060;BME280;56135;37.534;-122.308;2023-02-23T10:23:48;101033.50;;;0.35;100.00
69060;BME280;56135;37.534;-122.308;2023-02-23T10:26:26;101028.34;;;0.36;100.00
69060;BME280;56135;37.534;-122.308;2023-02-23T10:28:57;101028.44;;;0.39;100.00
69060;BME280;56135;37.534;-122.308;2023-02-23T10:31:36;101024.09;;;0.40;100.00
69060;BME280;56135;37.534;-122.308;2023-02-23T10:34:12;101030.25;;;0.42;100.00
69060;BME280;56135;37.534;-122.308;2023-02-23T10:36:50;101021.47;;;0.38;100.00
69060;BME280;56135;37.534;-122.308;2023-02-23T10:39:17;101024.28;;;0.44;100.00
69060;BME280;56135;37.534;-122.308;2023-02-23T10:41:44;101023.41;;;0.44;100.00
69060;BME280;56135;37.534;-122.308;2023-02-23T10:44:28;101018.34;;;0.48;100.00
69060;BME280;56135;37.534;-122.308;2023-02-23T10:46:59;101020.28;;;0.56;100.00
69060;BME280;56135;37.534;-122.308;2023-02-23T10:49:36;101013.72;;;0.67;100.00
69060;BME280;56135;37.534;-122.308;2023-02-23T10:52:04;101017.31;;;0.71;100.00
69060;BME280;56135;37.534;-122.308;2023-02-23T10:54:48;101021.97;;;0.81;100.00
69060;BME280;56135;37.534;-122.308;2023-02-23T10:57:30;101018.72;;;0.88;100.00
69060;BME280;56135;37.534;-122.308;2023-02-23T11:00:20;101015.53;;;0.97;100.00
69060;BME280;56135;37.534;-122.308;2023-02-23T11:02:52;101020.06;;;1.04;100.00
69060;BME280;56135;37.534;-122.308;2023-02-23T11:05:44;101021.22;;;1.14;100.00
69060;BME280;56135;37.534;-122.308;2023-02-23T11:08:32;101019.75;;;1.22;100.00
69060;BME280;56135;37.534;-122.308;2023-02-23T11:13:34;101023.78;;;1.41;100.00
69060;BME280;56135;37.534;-122.308;2023-02-23T11:16:24;101029.22;;;1.49;100.00
69060;BME280;56135;37.534;-122.308;2023-02-23T11:19:01;101026.75;;;1.55;100.00
69060;BME280;56135;37.534;-122.308;2023-02-23T11:21:36;101028.69;;;1.61;100.00
69060;BME280;56135;37.534;-122.308;2023-02-23T11:24:28;101022.75;;;1.66;100.00
69060;BME280;56135;37.534;-122.308;2023-02-23T11:27:04;101024.59;;;1.71;100.00
69060;BME280;56135;37.534;-122.308;2023-02-23T11:29:37;101028.16;;;1.73;100.00
69060;BME280;56135;37.534;-122.308;2023-02-23T11:32:16;101020.34;;;1.73;100.00
69060;BME280;56135;37.534;-122.308;2023-02-23T11:34:45;101016.81;;;1.72;100.00
69060;BME280;56135;37.534;-122.308;2023-02-23T11:39:56;101004.91;;;1.80;100.00
69060;BME280;56135;37.534;-122.308;2023-02-23T11:42:25;101003.19;;;1.81;100.00
69060;BME280;56135;37.534;-122.308;2023-02-23T11:45:06;101006.50;;;1.75;100.00
69060;BME280;56135;37.534;-122.308;2023-02-23T11:47:44;101014.09;;;1.67;100.00
69060;BME280;56135;37.534;-122.308;2023-02-23T11:50:33;101020.84;;;1.59;100.00
69060;BME280;56135;37.534;-122.308;2023-02-23T11:53:14;101013.03;;;1.59;100.00
69060;BME280;56135;37.534;-122.308;2023-02-23T11:55:52;101014.88;;;1.63;100.00
69060;BME280;56135;37.534;-122.308;2023-02-23T11:58:39;101015.91;;;1.70;100.00
69060;BME280;56135;37.534;-122.308;2023-02-23T12:01:15;101015.94;;;1.72;100.00
69060;BME280;56135;37.534;-122.308;2023-02-23T12:03:56;101015.09;;;1.71;100.00
69060;BME280;56135;37.534;-122.308;2023-02-23T12:06:40;101013.34;;;1.72;100.00
69060;BME280;56135;37.534;-122.308;2023-02-23T12:09:25;101021.09;;;1.69;100.00
69060;BME280;56135;37.534;-122.308;2023-02-23T12:12:31;101018.34;;;1.64;100.00
69060;BME280;56135;37.534;-122.308;2023-02-23T12:15:03;101016.34;;;1.55;100.00
69060;BME280;56135;37.534;-122.308;2023-02-23T12:17:39;101010.16;;;1.50;100.00
69060;BME280;56135;37.534;-122.308;2023-02-23T12:20:18;101014.22;;;1.42;100.00
69060;BME280;56135;37.534;-122.308;2023-02-23T12:23:08;101014.19;;;1.40;100.00
69060;BME280;56135;37.534;-122.308;2023-02-23T12:33:45;101015.22;;;1.16;100.00
69060;BME280;56135;37.534;-122.308;2023-02-23T12:39:13;101026.25;;;1.08;100.00
69060;BME280;56135;37.534;-122.308;2023-02-23T12:41:54;101026.09;;;1.03;100.00
69060;BME280;56135;37.534;-122.308;2023-02-23T12:44:30;101027.75;;;0.99;100.00
69060;BME280;56135;37.534;-122.308;2023-02-23T12:47:03;101026.78;;;0.96;100.00
69060;BME280;56135;37.534;-122.308;2023-02-23T12:49:40;101030.13;;;0.92;100.00
69060;BME280;56135;37.534;-122.308;2023-02-23T12:52:22;101035.16;;;0.87;100.00
69060;BME280;56135;37.534;-122.308;2023-02-23T12:54:50;101036.00;;;0.86;100.00
69060;BME280;56135;37.534;-122.308;2023-02-23T13:06:32;101036.59;;;0.77;100.00
69060;BME280;56135;37.534;-122.308;2023-02-23T13:22:27;101039.75;;;0.94;100.00
69060;BME280;56135;37.534;-122.308;2023-02-23T13:24:58;101051.22;;;1.01;100.00
69060;BME280;56135;37.534;-122.308;2023-02-23T13:27:32;101060.19;;;1.11;100.00
69060;BME280;56135;37.534;-122.308;2023-02-23T13:29:59;101056.09;;;1.19;100.00
69060;BME280;56135;37.534;-122.308;2023-02-23T13:32:32;101060.81;;;1.32;100.00
69060;BME280;56135;37.534;-122.308;2023-02-23T13:35:00;101069.88;;;1.45;100.00
69060;BME280;56135;37.534;-122.308;2023-02-23T13:37:32;101067.63;;;1.58;100.00
69060;BME280;56135;37.534;-122.308;2023-02-23T13:43:00;101083.94;;;1.81;100.00
69060;BME280;56135;37.534;-122.308;2023-02-23T13:51:36;101092.28;;;1.99;100.00
69060;BME280;56135;37.534;-122.308;2023-02-23T13:54:21;101088.88;;;2.02;100.00
69060;BME280;56135;37.534;-122.308;2023-02-23T13:56:52;101087.16;;;2.04;100.00
69060;BME280;56135;37.534;-122.308;2023-02-23T13:59:30;101083.72;;;2.05;100.00
69060;BME280;56135;37.534;-122.308;2023-02-23T14:02:22;101098.56;;;2.08;100.00
69060;BME280;56135;37.534;-122.308;2023-02-23T14:04:48;101102.13;;;2.10;100.00
69060;BME280;56135;37.534;-122.308;2023-02-23T14:07:32;101103.03;;;2.12;100.00
69060;BME280;56135;37.534;-122.308;2023-02-23T14:10:07;101095.31;;;2.15;100.00
69060;BME280;56135;37.534;-122.308;2023-02-23T14:12:38;101093.66;;;2.19;100.00
69060;BME280;56135;37.534;-122.308;2023-02-23T14:24:15;101076.13;;;2.13;100.00
69060;BME280;56135;37.534;-122.308;2023-02-23T14:29:43;101061.75;;;1.95;100.00
69060;BME280;56135;37.534;-122.308;2023-02-23T14:34:47;101068.22;;;1.78;100.00
69060;BME280;56135;37.534;-122.308;2023-02-23T14:39:54;101069.06;;;1.77;100.00
69060;BME280;56135;37.534;-122.308;2023-02-23T14:42:24;101072.38;;;1.71;100.00
69060;BME280;56135;37.534;-122.308;2023-02-23T14:44:53;101074.53;;;1.56;100.00
69060;BME280;56135;37.534;-122.308;2023-02-23T14:47:21;101076.19;;;1.54;100.00
69060;BME280;56135;37.534;-122.308;2023-02-23T14:49:54;101075.81;;;1.40;100.00
69060;BME280;56135;37.534;-122.308;2023-02-23T14:52:24;101079.56;;;1.49;100.00
69060;BME280;56135;37.534;-122.308;2023-02-23T14:55:05;101090.91;;;1.52;100.00
69060;BME280;56135;37.534;-122.308;2023-02-23T14:57:35;101084.63;;;1.45;100.00
69060;BME280;56135;37.534;-122.308;2023-02-23T15:00:18;101081.00;;;1.40;100.00